Time;durP1;ratioP1;P1;durP2;ratioP2;P2;SDS_P1;SDS_P2;PMS_P1;PMS_P2;Temp;Humidity;BMP_temperature;BMP_pressure;BME280_temperature;BME280_humidity;BME280_pressure;Samples;Min_cycle;Max_cycle;Signal;HPM_P1;HPM_P2
2021/10/15 00:00:26;;;;;;;9.57;3.57;;;;;;;-145.69;100.00;72773.66;5072823;28;20562;-76
2021/10/15 00:02:52;;;;;;;8.90;3.27;;;;;;;-145.69;100.00;72763.69;5072939;28;20608;-76
2021/10/15 00:05:19;;;;;;;6.03;3.33;;;;;;;-145.69;100.00;72771.66;5072881;28;20253;-76
2021/10/15 00:07:45;;;;;;;8.87;3.33;;;;;;;-145.69;100.00;72761.69;5072880;28;20202;-76
2021/10/15 00:10:12;;;;;;;6.67;3.33;;;;;;;-145.69;100.00;72767.69;5069008;28;20210;-76
2021/10/15 00:12:38;;;;;;;6.43;3.00;;;;;;;-145.69;100.00;72759.72;5072752;28;20203;-76
2021/10/15 00:15:08;;;;;;;8.57;2.80;;;;;;;-145.69;100.00;72759.72;5072939;28;20256;-76
2021/10/15 00:17:42;;;;;;;5.60;3.47;;;;;;;-145.69;100.00;72755.72;5072792;28;20203;-76
2021/10/15 00:20:09;;;;;;;6.80;2.93;;;;;;;-145.69;100.00;72751.75;5072246;28;20195;-76
2021/10/15 00:22:37;;;;;;;5.13;2.77;;;;;;;-145.69;100.00;72761.69;5072202;28;20201;-76
2021/10/15 00:25:05;;;;;;;5.60;2.63;;;;;;;-145.69;100.00;72789.56;5072396;28;20689;-75
2021/10/15 00:27:32;;;;;;;4.50;2.57;;;;;;;-145.69;100.00;72803.50;5072490;28;20249;-76
2021/10/15 00:29:59;;;;;;;4.73;2.50;;;;;;;-145.69;100.00;72813.47;5072855;28;20558;-76
2021/10/15 00:32:25;;;;;;;8.23;2.90;;;;;;;-145.69;100.00;72827.38;5072647;28;20289;-76
2021/10/15 00:34:53;;;;;;;3.53;2.30;;;;;;;-145.69;100.00;72843.31;5072595;28;20206;-76
2021/10/15 00:37:20;;;;;;;4.70;2.50;;;;;;;-145.69;100.00;72847.28;5072712;28;20616;-76
2021/10/15 00:39:47;;;;;;;4.07;2.27;;;;;;;-145.69;100.00;72871.19;5072448;28;20598;-76
2021/10/15 00:42:13;;;;;;;4.67;2.30;;;;;;;-145.69;100.00;72851.28;5072653;28;20256;-76
2021/10/15 00:44:40;;;;;;;3.80;2.47;;;;;;;-145.69;100.00;72865.22;5072562;28;20203;-75
2021/10/15 00:47:10;;;;;;;6.77;2.03;;;;;;;-145.69;100.00;72855.25;5072511;28;20206;-76
2021/10/15 00:49:36;;;;;;;4.43;2.40;;;;;;;-145.69;100.00;72847.28;5072323;28;20198;-75
2021/10/15 00:52:07;;;;;;;4.77;2.07;;;;;;;-145.69;100.00;72835.34;5072288;28;20231;-76
2021/10/15 00:54:34;;;;;;;4.27;2.57;;;;;;;-145.69;100.00;72825.41;5071907;28;20820;-76
2021/10/15 00:57:00;;;;;;;4.17;2.43;;;;;;;-145.69;100.00;72825.41;5073161;28;20206;-76
2021/10/15 00:59:27;;;;;;;4.83;2.60;;;;;;;-145.69;100.00;72823.41;5075870;28;20210;-76
2021/10/15 01:01:53;;;;;;;5.80;2.77;;;;;;;-145.69;100.00;72827.38;5075802;28;20653;-76
2021/10/15 01:04:20;;;;;;;4.80;2.10;;;;;;;-145.69;100.00;72847.28;5075722;28;20584;-76
2021/10/15 01:06:47;;;;;;;3.13;2.07;;;;;;;-145.69;100.00;72851.28;5075756;28;20233;-76
2021/10/15 01:09:15;;;;;;;4.87;2.37;;;;;;;-145.69;100.00;72833.38;5075842;28;20211;-77
2021/10/15 01:11:46;;;;;;;5.07;3.00;;;;;;;-145.69;100.00;72829.38;5076019;28;20199;-75
2021/10/15 01:14:15;;;;;;;4.73;2.50;;;;;;;-145.69;100.00;72833.38;5075789;28;20199;-75
2021/10/15 01:16:46;;;;;;;7.67;2.80;;;;;;;-145.69;100.00;72827.38;5075721;28;20345;-78
2021/10/15 01:19:13;;;;;;;5.33;2.80;;;;;;;-145.69;100.00;72831.38;5075619;28;20272;-78
2021/10/15 01:21:41;;;;;;;4.60;2.60;;;;;;;-145.69;100.00;72819.44;5075448;28;20654;-78
2021/10/15 01:24:07;;;;;;;3.87;2.50;;;;;;;-145.69;100.00;72831.38;5075700;28;20198;-75
2021/10/15 01:26:34;;;;;;;5.00;2.67;;;;;;;-145.69;100.00;72845.31;5075396;28;20649;-78
2021/10/15 01:29:00;;;;;;;7.03;2.83;;;;;;;-145.69;100.00;72839.34;5075762;28;20203;-77
2021/10/15 01:31:27;;;;;;;5.90;3.20;;;;;;;-145.69;100.00;72811.47;5075585;28;20346;-78
2021/10/15 01:33:56;;;;;;;9.40;2.77;;;;;;;-145.69;100.00;72809.47;5075234;28;20580;-77
2021/10/15 01:36:22;;;;;;;9.00;2.97;;;;;;;-145.69;100.00;72809.47;5075499;28;20219;-77
2021/10/15 01:38:50;;;;;;;6.67;3.37;;;;;;;-145.69;100.00;72779.63;5075548;28;20206;-77
2021/10/15 01:41:17;;;;;;;6.07;3.07;;;;;;;-145.69;100.00;72761.69;5075547;28;20210;-77
2021/10/15 01:43:46;;;;;;;7.07;3.60;;;;;;;-145.69;100.00;72757.72;5075253;28;20210;-77
2021/10/15 01:46:13;;;;;;;6.40;3.17;;;;;;;-145.69;100.00;72755.72;5074863;28;20272;-77
2021/10/15 01:48:39;;;;;;;5.57;2.87;;;;;;;-145.69;100.00;72763.69;5074797;28;20543;-77
2021/10/15 01:51:06;;;;;;;4.27;2.50;;;;;;;-145.69;100.00;72763.69;5075159;28;20765;-77
2021/10/15 01:53:36;;;;;;;8.07;2.80;;;;;;;-145.69;100.00;72759.72;5075072;28;20202;-76
2021/10/15 01:56:09;;;;;;;5.77;2.63;;;;;;;-145.69;100.00;72743.78;5074948;28;20269;-76
2021/10/15 01:58:36;;;;;;;5.50;3.17;;;;;;;-145.69;100.00;72735.81;5075114;28;20207;-76
2021/10/15 02:01:05;;;;;;;6.57;2.90;;;;;;;-145.69;100.00;72737.81;5074650;28;20649;-76
2021/10/15 02:03:32;;;;;;;8.83;3.20;;;;;;;-145.69;100.00;72731.84;5074900;28;20203;-78
2021/10/15 02:05:59;;;;;;;7.63;2.87;;;;;;;-145.69;100.00;72735.81;5074743;28;20226;-76
2021/10/15 02:08:25;;;;;;;7.83;3.10;;;;;;;-145.69;100.00;72735.81;5074035;28;20199;-76
2021/10/15 02:10:53;;;;;;;5.97;2.70;;;;;;;-145.69;100.00;72707.97;5074298;28;20199;-76
2021/10/15 02:13:23;;;;;;;5.43;2.90;;;;;;;-145.69;100.00;72703.97;5074553;28;20199;-77
2021/10/15 02:15:51;;;;;;;6.57;3.30;;;;;;;-145.69;100.00;72700.00;5074417;28;20195;-76
2021/10/15 02:18:18;;;;;;;6.07;3.10;;;;;;;-145.69;100.00;72686.06;5074693;28;20226;-75
2021/10/15 02:20:45;;;;;;;7.93;2.83;;;;;;;-145.69;100.00;72672.13;5074414;28;20199;-75
2021/10/15 02:23:11;;;;;;;4.77;2.90;;;;;;;-145.69;100.00;72670.13;5074426;28;20616;-76
2021/10/15 02:25:40;;;;;;;4.73;2.70;;;;;;;-145.69;100.00;72646.25;5074280;28;20234;-76
2021/10/15 02:28:07;;;;;;;6.73;2.50;;;;;;;-145.69;100.00;72640.28;5073936;28;20569;-78
2021/10/15 02:30:39;;;;;;;4.73;2.40;;;;;;;-145.69;100.00;72640.28;5073432;28;20609;-78
2021/10/15 02:33:05;;;;;;;4.37;2.57;;;;;;;-145.69;100.00;72640.28;5074569;28;20203;-78
2021/10/15 02:35:32;;;;;;;6.10;2.17;;;;;;;-145.69;100.00;72640.28;5074354;28;20242;-78
2021/10/15 02:38:01;;;;;;;4.67;2.50;;;;;;;-145.69;100.00;72636.31;5074153;28;20198;-77
2021/10/15 02:40:31;;;;;;;4.13;2.70;;;;;;;-145.69;100.00;72628.34;5074104;28;20592;-77
2021/10/15 02:42:58;;;;;;;5.27;2.33;;;;;;;-145.69;100.00;72634.31;5073601;28;20195;-78
2021/10/15 02:45:25;;;;;;;6.20;2.30;;;;;;;-145.69;100.00;72648.25;5074233;28;20232;-77
2021/10/15 02:47:53;;;;;;;5.03;2.20;;;;;;;-145.69;100.00;72624.34;5074008;28;20273;-78
2021/10/15 02:50:19;;;;;;;4.90;2.50;;;;;;;-145.69;100.00;72630.31;5073985;28;20600;-78
2021/10/15 02:52:46;;;;;;;4.27;2.20;;;;;;;-145.69;100.00;72632.31;5073947;28;20199;-77
2021/10/15 02:55:12;;;;;;;2.60;1.80;;;;;;;-145.69;100.00;72640.28;5073715;28;20233;-77
2021/10/15 02:57:39;;;;;;;5.77;2.30;;;;;;;-145.69;100.00;72632.31;5073923;28;20229;-78
2021/10/15 03:00:07;;;;;;;5.03;2.27;;;;;;;-145.69;100.00;72650.22;5073781;28;20205;-78
2021/10/15 03:02:37;;;;;;;4.40;2.00;;;;;;;-145.69;100.00;72636.31;5073592;28;20202;-77
2021/10/15 03:05:05;;;;;;;5.07;2.20;;;;;;;-145.69;100.00;72640.28;5073602;28;20195;-78
2021/10/15 03:07:34;;;;;;;3.67;2.00;;;;;;;-145.69;100.00;72648.25;5073530;28;20226;-77
2021/10/15 03:10:00;;;;;;;2.50;1.90;;;;;;;-145.69;100.00;72662.19;5073400;28;20198;-76
2021/10/15 03:12:30;;;;;;;4.63;2.07;;;;;;;-145.69;100.00;72658.19;5073876;28;20198;-77
2021/10/15 03:14:58;;;;;;;6.10;2.10;;;;;;;-145.69;100.00;72664.16;5073462;28;20199;-77
2021/10/15 03:17:25;;;;;;;5.00;2.03;;;;;;;-145.69;100.00;72668.16;5073441;28;20210;-77
2021/10/15 03:19:51;;;;;;;4.67;2.40;;;;;;;-145.69;100.00;72668.16;5073084;28;20542;-77
2021/10/15 03:22:19;;;;;;;3.20;2.10;;;;;;;-145.69;100.00;72676.09;5073440;28;20195;-77
2021/10/15 03:24:45;;;;;;;3.70;2.03;;;;;;;-145.69;100.00;72684.06;5073109;28;20203;-77
2021/10/15 03:27:12;;;;;;;6.87;2.50;;;;;;;-145.69;100.00;72700.00;5073344;28;20238;-77
2021/10/15 03:29:38;;;;;;;3.53;2.37;;;;;;;-145.69;100.00;72703.97;5073467;28;20195;-77
2021/10/15 03:32:05;;;;;;;6.77;2.20;;;;;;;-145.69;100.00;72696.00;5073252;28;20205;-77
2021/10/15 03:34:34;;;;;;;4.67;2.23;;;;;;;-145.69;100.00;72694.03;5073126;28;20210;-77
2021/10/15 03:37:01;;;;;;;2.67;1.93;;;;;;;-145.69;100.00;72672.13;5073079;28;20294;-77
2021/10/15 03:39:29;;;;;;;5.87;2.03;;;;;;;-145.69;100.00;72662.19;5073304;28;20202;-76
2021/10/15 03:41:55;;;;;;;5.40;2.00;;;;;;;-145.69;100.00;72658.19;5073206;28;20539;-77
2021/10/15 03:44:24;;;;;;;4.53;2.43;;;;;;;-145.69;100.00;72656.22;5073248;28;20199;-77
2021/10/15 03:46:50;;;;;;;3.00;1.97;;;;;;;-145.69;100.00;72636.31;5073055;28;20260;-77
2021/10/15 03:49:17;;;;;;;3.43;2.00;;;;;;;-145.69;100.00;72624.34;5073126;28;20256;-76
2021/10/15 03:51:44;;;;;;;2.80;1.63;;;;;;;-145.69;100.00;72622.38;5073081;28;20199;-77
2021/10/15 03:54:11;;;;;;;2.50;1.70;;;;;;;-145.69;100.00;72636.31;5072940;28;20205;-77
2021/10/15 03:56:39;;;;;;;3.97;1.90;;;;;;;-145.69;100.00;72658.19;5073011;28;20612;-77
2021/10/15 03:59:05;;;;;;;2.60;1.70;;;;;;;-145.69;100.00;72664.16;5072871;28;20221;-77
2021/10/15 04:01:32;;;;;;;6.10;1.90;;;;;;;-145.69;100.00;72654.22;5073113;28;20198;-77
2021/10/15 04:03:58;;;;;;;3.70;1.90;;;;;;;-145.69;100.00;72664.16;5072868;28;20198;-77
2021/10/15 04:06:25;;;;;;;4.07;1.67;;;;;;;-145.69;100.00;72664.16;5072916;28;20239;-77
2021/10/15 04:08:51;;;;;;;2.43;1.63;;;;;;;-145.69;100.00;72676.09;5073033;28;20248;-76
2021/10/15 04:11:18;;;;;;;3.30;1.77;;;;;;;-145.69;100.00;72672.13;5073104;28;20206;-77
2021/10/15 04:13:45;;;;;;;4.73;2.10;;;;;;;-145.69;100.00;72648.25;5072853;28;20206;-77
2021/10/15 04:16:12;;;;;;;3.33;2.00;;;;;;;-145.69;100.00;72656.22;5072890;28;20256;-76
2021/10/15 04:18:40;;;;;;;2.80;1.80;;;;;;;-145.69;100.00;72680.09;5072734;28;20260;-77
2021/10/15 04:21:07;;;;;;;4.80;2.03;;;;;;;-145.69;100.00;72672.13;5072939;28;20229;-77
2021/10/15 04:23:33;;;;;;;3.10;1.87;;;;;;;-145.69;100.00;72684.06;5072082;28;20198;-76
2021/10/15 04:26:00;;;;;;;4.33;1.97;;;;;;;-145.69;100.00;72698.00;5072589;28;20228;-77
2021/10/15 04:28:26;;;;;;;3.13;2.07;;;;;;;-145.69;100.00;72700.00;5072816;28;20568;-76
2021/10/15 04:30:54;;;;;;;4.20;1.83;;;;;;;-145.69;100.00;72705.97;5072580;28;20214;-76
2021/10/15 04:33:21;;;;;;;3.80;1.97;;;;;;;-145.69;100.00;72715.91;5075071;28;20199;-76
2021/10/15 04:35:50;;;;;;;3.53;1.80;;;;;;;-145.69;100.00;72721.88;5076567;28;20198;-77
2021/10/15 04:38:19;;;;;;;2.47;1.83;;;;;;;-145.69;100.00;72723.88;5076220;28;20205;-76
2021/10/15 04:40:45;;;;;;;4.77;2.07;;;;;;;-145.69;100.00;72725.88;5076487;28;20201;-77
2021/10/15 04:43:12;;;;;;;3.03;1.87;;;;;;;-145.69;100.00;72727.88;5076358;28;20203;-77
2021/10/15 04:45:38;;;;;;;3.43;2.00;;;;;;;-145.69;100.00;72739.81;5076238;28;20260;-76
2021/10/15 04:48:06;;;;;;;3.67;2.07;;;;;;;-145.69;100.00;72745.78;5076328;28;20305;-77
2021/10/15 04:50:36;;;;;;;5.23;1.53;;;;;;;-145.69;100.00;72741.78;5076279;28;20206;-76
2021/10/15 04:53:05;;;;;;;3.43;1.87;;;;;;;-145.69;100.00;72745.78;5076376;28;20607;-77
2021/10/15 04:55:32;;;;;;;3.43;2.10;;;;;;;-145.69;100.00;72745.78;5076026;28;20288;-76
2021/10/15 04:58:00;;;;;;;3.77;1.90;;;;;;;-145.69;100.00;72751.75;5076023;28;20661;-77
2021/10/15 05:00:29;;;;;;;3.80;1.93;;;;;;;-145.69;100.00;72743.78;5075904;28;20704;-76
2021/10/15 05:03:02;;;;;;;4.30;1.67;;;;;;;-145.69;100.00;72741.78;5075890;28;20576;-76
2021/10/15 05:05:30;;;;;;;3.30;2.03;;;;;;;-145.69;100.00;72755.72;5075619;28;20199;-77
2021/10/15 05:07:58;;;;;;;2.90;1.83;;;;;;;-145.69;100.00;72767.69;5075706;28;20227;-76
2021/10/15 05:10:27;;;;;;;5.17;2.57;;;;;;;-145.69;100.00;72769.66;5075759;28;20210;-77
2021/10/15 05:12:54;;;;;;;3.07;1.87;;;;;;;-145.69;100.00;72781.59;5075621;28;20222;-76
2021/10/15 05:15:21;;;;;;;15.87;8.03;;;;;;;-145.69;100.00;72787.56;5075851;28;20199;-77
2021/10/15 05:17:48;;;;;;;6.53;3.23;;;;;;;-145.69;100.00;72787.56;5075856;28;20198;-77
2021/10/15 05:20:17;;;;;;;3.53;2.43;;;;;;;-145.69;100.00;72795.53;5075749;28;20229;-77
2021/10/15 05:22:45;;;;;;;4.27;2.10;;;;;;;-145.69;100.00;72793.56;5075611;28;20658;-76
2021/10/15 05:25:16;;;;;;;7.77;2.70;;;;;;;-145.69;100.00;72779.63;5075718;28;20560;-76
2021/10/15 05:27:48;;;;;;;3.83;2.20;;;;;;;-145.69;100.00;72775.63;5075551;28;20237;-76
2021/10/15 05:30:14;;;;;;;4.07;2.10;;;;;;;-145.69;100.00;72759.72;5075676;28;20252;-76
2021/10/15 05:32:44;;;;;;;9.30;2.33;;;;;;;-145.69;100.00;72755.72;5075680;28;20195;-76
2021/10/15 05:35:10;;;;;;;10.13;3.10;;;;;;;-145.69;100.00;72745.78;5075496;28;20195;-76
2021/10/15 05:37:37;;;;;;;3.43;2.03;;;;;;;-145.69;100.00;72733.84;5075377;28;20256;-76
2021/10/15 05:40:07;;;;;;;4.40;2.30;;;;;;;-145.69;100.00;72723.88;5075119;28;20202;-77
2021/10/15 05:42:34;;;;;;;8.00;2.53;;;;;;;-145.69;100.00;72719.91;5075110;28;20530;-76
2021/10/15 05:45:00;;;;;;;5.53;2.27;;;;;;;-145.69;100.00;72723.88;5075172;28;20201;-76
2021/10/15 05:47:33;;;;;;;4.77;2.10;;;;;;;-145.69;100.00;72731.84;5074971;28;20261;-76
2021/10/15 05:50:00;;;;;;;9.97;2.80;;;;;;;-145.69;100.00;72727.88;5074959;28;20195;-77
2021/10/15 05:52:34;;;;;;;3.17;2.10;;;;;;;-145.69;100.00;72727.88;5074795;28;20646;-77
2021/10/15 05:55:10;;;;;;;3.43;2.10;;;;;;;-145.69;100.00;72739.81;5074792;28;20272;-76
2021/10/15 06:00:21;;;;;;;3.27;1.97;;;;;;;-145.69;100.00;72725.88;5074790;28;20217;-77
2021/10/15 06:02:48;;;;;;;9.90;2.17;;;;;;;-145.69;100.00;72721.88;5074628;28;20226;-76
2021/10/15 06:16:44;;;;;;;2.87;2.30;;;;;;;-145.69;100.00;72656.22;5049687;28;20689;-76
2021/10/15 06:19:13;;;;;;;2.90;1.90;;;;;;;-145.69;100.00;72636.31;5074654;28;20207;-76
2021/10/15 06:21:39;;;;;;;2.90;2.00;;;;;;;-145.69;100.00;72624.34;5073645;28;20201;-77
2021/10/15 06:24:06;;;;;;;5.93;2.30;;;;;;;-145.69;100.00;72612.41;5074550;28;20596;-76
2021/10/15 06:26:34;;;;;;;4.23;1.70;;;;;;;-145.69;100.00;72600.47;5074356;28;20223;-76
2021/10/15 06:29:00;;;;;;;2.83;2.00;;;;;;;-145.69;100.00;72580.56;5074199;28;20561;-77
2021/10/15 06:31:30;;;;;;;4.30;1.67;;;;;;;-145.69;100.00;72572.59;5074410;28;20202;-76
2021/10/15 06:33:56;;;;;;;3.67;1.90;;;;;;;-145.69;100.00;72564.66;5074305;28;20194;-76
2021/10/15 06:36:23;;;;;;;3.37;2.50;;;;;;;-145.69;100.00;72564.66;5074245;28;20261;-76
2021/10/15 06:38:49;;;;;;;4.97;2.83;;;;;;;-145.69;100.00;72554.69;5074185;28;20213;-76
2021/10/15 06:41:16;;;;;;;2.93;1.63;;;;;;;-145.69;100.00;72556.69;5074068;28;20377;-77
2021/10/15 06:43:44;;;;;;;3.40;1.60;;;;;;;-145.69;100.00;72560.66;5074252;28;20198;-76
2021/10/15 06:46:12;;;;;;;3.13;1.67;;;;;;;-145.69;100.00;72552.69;5073961;28;20228;-77
2021/10/15 06:48:39;;;;;;;3.07;1.90;;;;;;;-145.69;100.00;72548.72;5073710;28;20222;-77
2021/10/15 06:51:05;;;;;;;2.57;1.70;;;;;;;-145.69;100.00;72548.72;5074119;28;20272;-77
2021/10/15 06:53:32;;;;;;;5.13;1.53;;;;;;;-145.69;100.00;72552.69;5073765;28;20199;-77
2021/10/15 06:55:58;;;;;;;3.43;1.60;;;;;;;-145.69;100.00;72552.69;5072898;28;20705;-77
2021/10/15 06:58:25;;;;;;;5.53;1.92;;;;;;;-145.69;100.00;72556.69;5072457;28;20431;-77
2021/10/15 07:00:53;;;;;;;3.20;1.87;;;;;;;-145.69;100.00;72554.69;5073597;28;20645;-76
2021/10/15 07:03:20;;;;;;;3.33;1.60;;;;;;;-145.69;100.00;72556.69;5073540;28;20535;-76
2021/10/15 07:05:47;;;;;;;1.77;1.30;;;;;;;-145.69;100.00;72548.72;5073796;28;20206;-77
2021/10/15 07:08:14;;;;;;;3.17;1.40;;;;;;;-145.69;100.00;72544.75;5073550;28;20233;-77
2021/10/15 07:10:41;;;;;;;1.90;1.30;;;;;;;-145.69;100.00;72536.78;5073387;28;20707;-77
2021/10/15 07:13:07;;;;;;;2.80;1.60;;;;;;;-145.69;100.00;72518.88;5073428;28;20194;-77
2021/10/15 07:15:35;;;;;;;3.57;1.83;;;;;;;-145.69;100.00;72494.97;5073272;28;20211;-77
2021/10/15 07:18:03;;;;;;;7.67;2.20;;;;;;;-145.69;100.00;72457.16;5073147;28;20589;-77
2021/10/15 07:20:33;;;;;;;6.43;3.13;;;;;;;-145.69;100.00;72449.19;5073516;28;20199;-76
2021/10/15 07:22:59;;;;;;;6.87;3.13;;;;;;;-145.69;100.00;72441.25;5073360;28;20202;-77
2021/10/15 07:25:26;;;;;;;6.53;3.27;;;;;;;-145.69;100.00;72433.28;5073292;28;20199;-77
2021/10/15 07:27:52;;;;;;;5.63;3.27;;;;;;;-145.69;100.00;72435.28;5073247;28;20268;-77
2021/10/15 07:30:19;;;;;;;7.23;3.33;;;;;;;-145.69;100.00;72447.22;5073079;28;20202;-77
2021/10/15 07:32:46;;;;;;;8.23;3.17;;;;;;;-145.69;100.00;72453.19;5073385;28;20225;-77
2021/10/15 07:35:13;;;;;;;4.50;2.87;;;;;;;-145.69;100.00;72455.16;5073225;28;20195;-77
2021/10/15 07:37:40;;;;;;;6.10;3.30;;;;;;;-145.69;100.00;72459.16;5073049;28;20600;-77
2021/10/15 07:40:10;;;;;;;5.57;3.30;;;;;;;-145.69;100.00;72471.09;5073156;28;20241;-77
2021/10/15 07:42:36;;;;;;;4.07;3.07;;;;;;;-145.69;100.00;72469.09;5073525;28;20229;-76
2021/10/15 07:45:04;;;;;;;7.17;3.50;;;;;;;-145.69;100.00;72483.03;5072834;28;20205;-76
2021/10/15 07:47:30;;;;;;;6.47;3.67;;;;;;;-145.69;100.00;72485.03;5073116;28;20317;-77
2021/10/15 07:49:57;;;;;;;6.17;3.67;;;;;;;-145.69;100.00;72473.09;5073145;28;20241;-77
2021/10/15 07:52:28;;;;;;;3.43;2.30;;;;;;;-145.69;100.00;72459.16;5073021;28;20280;-75
2021/10/15 07:54:55;;;;;;;9.10;3.93;;;;;;;-145.69;100.00;72439.25;5072638;28;20712;-77
2021/10/15 07:57:21;;;;;;;2.43;1.70;;;;;;;-145.69;100.00;72417.34;5072747;28;20282;-77
2021/10/15 07:59:48;;;;;;;4.90;2.30;;;;;;;-145.69;100.00;72385.50;5072599;28;20676;-77
2021/10/15 08:02:15;;;;;;;2.50;1.83;;;;;;;-145.69;100.00;72363.63;5072842;28;20195;-77
2021/10/15 08:04:42;;;;;;;3.20;1.60;;;;;;;-145.69;100.00;72321.81;5072741;28;20653;-77
2021/10/15 08:07:11;;;;;;;2.10;1.60;;;;;;;-145.69;100.00;72295.94;5073313;28;20292;-77
2021/10/15 08:09:39;;;;;;;2.50;2.10;;;;;;;-145.69;100.00;72278.03;5077016;28;20210;-77
2021/10/15 08:12:06;;;;;;;3.37;2.30;;;;;;;-145.69;100.00;72250.16;5076670;28;20198;-77
2021/10/15 08:14:38;;;;;;;2.73;1.70;;;;;;;-145.69;100.00;72228.28;5076857;28;20256;-77
2021/10/15 08:17:05;;;;;;;2.00;1.40;;;;;;;-145.69;100.00;72206.38;5076627;28;20554;-77
2021/10/15 08:19:31;;;;;;;2.27;1.67;;;;;;;-145.69;100.00;72186.47;5076475;28;20195;-77
2021/10/15 08:21:58;;;;;;;4.33;2.30;;;;;;;-145.69;100.00;72170.56;5075916;28;20197;-77
2021/10/15 08:24:26;;;;;;;6.80;2.50;;;;;;;-145.69;100.00;72148.66;5076458;28;20256;-77
2021/10/15 08:26:54;;;;;;;4.10;2.40;;;;;;;-145.69;100.00;72134.72;5076576;28;20198;-78
2021/10/15 08:29:24;;;;;;;6.27;1.93;;;;;;;-145.69;100.00;72112.84;5076537;28;20202;-77
2021/10/15 08:31:53;;;;;;;10.90;3.47;;;;;;;-145.69;100.00;72104.88;5076455;28;20206;-78
2021/10/15 08:34:22;;;;;;;5.70;2.47;;;;;;;-145.69;100.00;72073.03;5076404;28;20653;-77
2021/10/15 08:36:53;;;;;;;5.87;2.30;;;;;;;-145.69;100.00;72049.16;5076136;28;20198;-77
2021/10/15 08:39:22;;;;;;;23.33;5.00;;;;;;;-145.69;100.00;72023.28;5076487;28;20187;-77
2021/10/15 08:41:49;;;;;;;8.53;2.50;;;;;;;-145.69;100.00;72001.38;5076344;28;20198;-77
2021/10/15 08:44:16;;;;;;;4.50;2.17;;;;;;;-145.69;100.00;71975.50;5076272;28;20234;-77
2021/10/15 08:46:43;;;;;;;4.30;1.97;;;;;;;-145.69;100.00;71967.56;5076187;28;20206;-77
2021/10/15 08:49:09;;;;;;;5.40;2.07;;;;;;;-145.69;100.00;71947.66;5075977;28;20303;-77
2021/10/15 08:51:38;;;;;;;2.27;1.47;;;;;;;-145.69;99.25;71933.72;5075945;28;20199;-77
2021/10/15 08:54:05;;;;;;;2.80;1.40;;;;;;;-145.69;88.65;71870.03;5076024;28;20203;-77
2021/10/15 08:56:34;;;;;;;2.30;1.27;;;;;;;-145.69;100.00;71852.13;5075976;28;20199;-77
2021/10/15 08:59:04;;;;;;;1.83;1.37;;;;;;;-145.69;99.44;71848.16;5076030;28;20641;-77
2021/10/15 09:01:45;;;;;;;1.77;1.20;;;;;;;-145.69;79.56;71824.25;5075878;28;20210;-78
2021/10/15 09:04:18;;;;;;;1.93;1.23;;;;;;;-145.69;88.58;71794.41;5075687;28;20691;-77
2021/10/15 09:06:47;;;;;;;3.07;1.20;;;;;;;-145.69;82.45;71784.47;5075869;28;20203;-77
2021/10/15 09:09:26;;;;;;;1.43;1.03;;;;;;;-145.69;72.33;71744.66;5075934;28;20230;-77
2021/10/15 09:12:09;;;;;;;1.70;1.17;;;;;;;-145.69;71.80;71728.75;5075085;28;20264;-77
2021/10/15 09:14:40;;;;;;;1.83;1.30;;;;;;;-145.69;74.09;71738.69;5075668;28;20553;-77
2021/10/15 09:17:12;;;;;;;2.77;1.27;;;;;;;-145.69;72.26;71740.69;5075818;28;20210;-77
2021/10/15 09:19:41;;;;;;;1.30;1.00;;;;;;;-145.69;68.57;71736.72;5075144;28;20226;-77
2021/10/15 09:22:20;;;;;;;1.53;1.03;;;;;;;-145.69;71.06;71748.66;5075427;28;20661;-77
2021/10/15 09:24:53;;;;;;;3.27;1.53;;;;;;;-145.69;68.27;71744.66;5075480;28;20206;-77
2021/10/15 09:27:26;;;;;;;3.10;1.20;;;;;;;-145.69;68.27;71744.66;5075628;28;20199;-77
2021/10/15 09:29:56;;;;;;;2.23;1.37;;;;;;;-145.69;65.69;71740.69;5075468;28;20203;-77
2021/10/15 09:32:27;;;;;;;2.30;1.40;;;;;;;-145.69;68.54;71746.66;5075310;28;20202;-76
2021/10/15 09:34:54;;;;;;;2.90;1.60;;;;;;;-145.69;64.95;71746.66;5075436;28;20199;-78
2021/10/15 09:37:26;;;;;;;3.70;1.33;;;;;;;-145.69;64.91;71744.66;5075105;28;20256;-77
2021/10/15 09:40:01;;;;;;;4.10;1.60;;;;;;;-145.69;67.84;71740.69;5075323;28;20199;-77
2021/10/15 09:42:30;;;;;;;1.60;1.23;;;;;;;-145.69;66.27;71732.72;5075183;28;20553;-77
2021/10/15 09:45:02;;;;;;;3.57;1.27;;;;;;;-145.69;67.46;71722.78;5075169;28;20202;-77
2021/10/15 09:47:30;;;;;;;3.57;1.53;;;;;;;-145.69;68.80;71708.84;5074862;28;20697;-77
2021/10/15 09:50:01;;;;;;;2.03;1.50;;;;;;;-145.69;68.38;71696.91;5075018;28;20252;-77
2021/10/15 09:52:33;;;;;;;3.70;1.63;;;;;;;-145.69;67.70;71682.97;5075208;28;20213;-77
2021/10/15 09:55:08;;;;;;;3.60;2.00;;;;;;;-145.69;69.31;71661.09;5074792;28;20227;-77
2021/10/15 09:57:40;;;;;;;4.30;1.80;;;;;;;-145.69;72.71;71637.19;5075070;28;20206;-78
2021/10/15 10:00:09;;;;;;;6.30;1.60;;;;;;;-145.69;68.97;71637.19;5074785;28;20484;-78
2021/10/15 10:02:38;;;;;;;2.57;1.40;;;;;;;-145.69;70.79;71641.19;5074633;28;20206;-78
2021/10/15 10:05:13;;;;;;;4.13;1.50;;;;;;;-145.69;71.77;71623.28;5074791;28;20282;-78
2021/10/15 10:07:40;;;;;;;2.92;1.70;;;;;;;-145.69;66.74;71617.31;5074617;28;20234;-78
2021/10/15 10:10:12;;;;;;;3.30;1.60;;;;;;;-145.69;68.17;71615.31;5074634;28;20203;-77
2021/10/15 10:12:40;;;;;;;3.42;1.90;;;;;;;-145.69;69.26;71605.38;5074452;28;20203;-78
2021/10/15 10:15:09;;;;;;;2.40;1.50;;;;;;;-145.69;72.23;71583.47;5074333;28;20234;-78
2021/10/15 10:17:42;;;;;;;4.97;1.92;;;;;;;-145.69;75.73;71589.44;5074578;28;20207;-77
2021/10/15 10:20:14;;;;;;;3.70;1.80;;;;;;;-145.69;70.87;71585.47;5074348;28;20669;-77
2021/10/15 10:22:48;;;;;;;2.15;1.58;;;;;;;-145.69;69.34;71593.44;5074492;28;20210;-76
2021/10/15 10:25:22;;;;;;;5.60;1.50;;;;;;;-145.69;65.69;71593.44;5074232;28;20203;-78
2021/10/15 10:27:49;;;;;;;2.50;1.83;;;;;;;-145.69;68.19;71595.41;5073713;28;20222;-78
2021/10/15 10:30:18;;;;;;;2.70;1.75;;;;;;;-145.69;68.25;71597.41;5073328;28;20294;-77
2021/10/15 10:35:43;;;;;;;2.42;1.75;;;;;;;-145.69;68.76;71597.41;5131412;27;20301;-77
2021/10/15 10:38:37;;;;;;;2.20;1.60;;;;;;;-145.69;65.66;71593.44;5110646;28;20254;-78
2021/10/15 10:41:28;;;;;;;2.17;1.53;;;;;;;-145.69;67.57;71579.50;5110817;28;20247;-77
2021/10/15 10:44:21;;;;;;;4.00;1.70;;;;;;;-145.69;63.59;71589.44;5110745;28;20555;-78
2021/10/15 10:47:14;;;;;;;4.05;1.80;;;;;;;-145.69;65.64;71567.56;5110890;28;20258;-77
2021/10/15 10:49:44;;;;;;;1.98;1.60;;;;;;;-145.69;66.24;71579.50;5110698;28;20270;-77
2021/10/15 10:52:20;;;;;;;3.20;1.90;;;;;;;-145.69;61.95;71579.50;5110547;28;20258;-77
2021/10/15 10:54:49;;;;;;;2.20;1.58;;;;;;;-145.69;65.17;71565.56;5110296;28;20687;-77
2021/10/15 10:57:24;;;;;;;3.25;2.00;;;;;;;-145.69;64.08;71557.59;5110588;28;20201;-76
2021/10/15 10:59:52;;;;;;;2.42;1.75;;;;;;;-145.69;64.50;71541.69;5110421;28;20204;-76
2021/10/15 11:02:21;;;;;;;4.00;1.83;;;;;;;-145.69;63.24;71545.66;5109461;28;20797;-78
2021/10/15 11:04:58;;;;;;;4.55;1.75;;;;;;;-145.69;64.04;71549.66;5110263;28;20205;-76
2021/10/15 11:07:29;;;;;;;3.03;1.60;;;;;;;-145.69;65.67;71545.66;5110519;28;20229;-75
2021/10/15 11:09:59;;;;;;;2.03;1.50;;;;;;;-145.69;63.91;71543.69;5110310;28;20194;-76
2021/10/15 11:12:58;;;;;;;2.58;1.50;;;;;;;-145.69;65.81;71533.72;5110134;28;20279;-76
2021/10/15 11:15:34;;;;;;;2.95;1.60;;;;;;;-145.69;63.89;71523.78;5110031;28;20268;-78
2021/10/15 11:18:03;;;;;;;2.50;1.63;;;;;;;-145.69;69.27;71503.88;5110123;28;20205;-79
2021/10/15 11:20:36;;;;;;;2.38;1.40;;;;;;;-145.69;66.57;71474.03;5110113;28;20208;-77
2021/10/15 11:23:13;;;;;;;5.60;1.52;;;;;;;-145.69;63.64;71472.03;5110082;28;20204;-77
2021/10/15 11:25:41;;;;;;;3.83;1.85;;;;;;;-145.69;63.75;71489.94;5109765;28;20237;-78
2021/10/15 11:28:14;;;;;;;5.25;1.60;;;;;;;-145.69;67.88;71462.09;5109981;28;20227;-78
2021/10/15 11:30:52;;;;;;;6.93;1.10;;;;;;;-145.69;61.46;71434.22;5109915;28;20212;-78
2021/10/15 11:33:20;;;;;;;1.70;0.90;;;;;;;-145.69;60.04;71422.28;5109650;28;20201;-78
2021/10/15 11:35:52;;;;;;;2.58;1.20;;;;;;;-145.69;64.86;71400.41;5109749;28;20286;-78